Time;durP1;ratioP1;P1;durP2;ratioP2;P2;SDS_P1;SDS_P2;PMS_P1;PMS_P2;Temp;Humidity;BMP_temperature;BMP_pressure;BME280_temperature;BME280_humidity;BME280_pressure;Samples;Min_cycle;Max_cycle;Signal;HPM_P1;HPM_P2
2022/04/01 00:00:28;;;;;;;;;4.50;0.25;;;;;3.51;62.84;100328.56;5064057;28;46421;-68
2022/04/01 00:02:54;;;;;;;;;2.50;1.00;;;;;3.46;62.23;100326.25;5096035;27;45325;-68
2022/04/01 00:05:19;;;;;;;;;0.25;0.25;;;;;3.51;62.39;100323.19;5068089;28;45249;-68
2022/04/01 00:07:44;;;;;;;;;1.75;1.00;;;;;3.52;62.09;100323.09;5073572;28;45415;-68
2022/04/01 00:10:10;;;;;;;;;4.00;2.50;;;;;3.49;62.00;100317.09;5062492;28;46002;-68
2022/04/01 00:12:44;;;;;;;;;4.00;1.75;;;;;3.36;62.26;100314.44;5075441;28;45381;-68
2022/04/01 00:15:12;;;;;;;;;1.00;1.00;;;;;3.26;62.36;100307.22;5073823;28;45445;-68
2022/04/01 00:17:38;;;;;;;;;4.00;2.00;;;;;3.36;62.55;100319.00;5070337;28;45544;-69
2022/04/01 00:20:05;;;;;;;;;1.00;1.00;;;;;3.38;62.67;100317.03;5062757;28;45427;-68
2022/04/01 00:22:30;;;;;;;;;2.50;2.50;;;;;3.40;62.82;100320.47;5074339;28;45455;-68
2022/04/01 00:24:56;;;;;;;;;1.00;1.00;;;;;3.40;62.66;100315.09;5066247;28;45265;-69
2022/04/01 00:27:22;;;;;;;;;2.00;2.00;;;;;3.43;62.92;100314.88;5075317;28;45440;-68
2022/04/01 00:29:48;;;;;;;;;2.25;2.25;;;;;3.41;62.61;100319.50;5071387;28;45492;-68
2022/04/01 00:32:14;;;;;;;;;7.50;2.00;;;;;3.53;62.15;100322.13;5073795;28;45342;-68
2022/04/01 00:34:40;;;;;;;;;5.00;2.00;;;;;3.51;62.54;100320.50;5070558;28;45340;-68
2022/04/01 00:37:05;;;;;;;;;2.00;1.75;;;;;3.44;62.52;100292.41;5072358;28;45515;-68
2022/04/01 00:39:31;;;;;;;;;3.00;1.25;;;;;3.56;62.28;100321.06;5068752;28;45626;-68
2022/04/01 00:42:00;;;;;;;;;2.00;2.00;;;;;3.43;62.76;100298.78;5070966;28;45408;-68
2022/04/01 00:44:28;;;;;;;;;4.50;2.00;;;;;3.46;62.40;100304.75;5068148;28;45395;-68
2022/04/01 00:46:57;;;;;;;;;2.00;2.00;;;;;3.44;63.09;100308.50;5070360;28;45455;-68
2022/04/01 00:49:24;;;;;;;;;6.00;1.00;;;;;3.56;63.39;100299.56;5066717;28;46280;-68
2022/04/01 00:51:52;;;;;;;;;1.00;0.00;;;;;3.57;62.87;100303.97;5068601;28;45409;-68
2022/04/01 00:54:17;;;;;;;;;2.00;2.00;;;;;3.61;62.75;100289.31;5065161;28;45433;-68
2022/04/01 00:56:44;;;;;;;;;6.25;2.00;;;;;3.67;63.02;100283.47;5067884;28;45446;-69
2022/04/01 00:59:10;;;;;;;;;1.50;1.00;;;;;3.59;62.42;100287.72;5072900;28;48380;-69
2022/04/01 01:01:37;;;;;;;;;1.00;0.50;;;;;3.49;62.97;100277.69;5068525;28;45304;-68
2022/04/01 01:04:04;;;;;;;;;1.00;1.00;;;;;3.41;63.02;100263.97;5072788;28;45511;-68
2022/04/01 01:06:31;;;;;;;;;0.75;0.75;;;;;3.30;63.08;100261.22;5066762;28;45451;-68
2022/04/01 01:08:58;;;;;;;;;0.75;0.75;;;;;3.53;63.02;100275.59;5070754;28;46292;-68
2022/04/01 01:11:25;;;;;;;;;1.50;1.25;;;;;3.42;63.11;100259.47;5078225;28;45339;-68
2022/04/01 01:13:51;;;;;;;;;1.00;1.00;;;;;3.42;63.98;100262.16;5069776;28;45519;-68
2022/04/01 01:16:16;;;;;;;;;3.00;1.00;;;;;3.36;63.68;100255.38;5063557;28;46066;-68
2022/04/01 01:18:42;;;;;;;;;1.00;1.00;;;;;3.43;64.07;100245.06;5078305;28;46873;-69
2022/04/01 01:21:09;;;;;;;;;0.50;0.50;;;;;3.45;63.84;100248.47;5068284;28;45256;-68
2022/04/01 01:23:35;;;;;;;;;1.00;1.00;;;;;3.46;63.84;100244.81;5078803;27;45404;-68
2022/04/01 01:26:01;;;;;;;;;1.25;1.00;;;;;3.53;64.02;100232.63;5067527;28;46426;-68
2022/04/01 01:28:27;;;;;;;;;0.50;0.50;;;;;3.51;64.83;100226.50;5086379;27;45609;-68
2022/04/01 01:30:52;;;;;;;;;1.50;1.50;;;;;3.61;64.81;100230.22;5067479;28;45712;-69
2022/04/01 01:33:24;;;;;;;;;2.25;1.00;;;;;3.64;64.76;100208.50;5081466;28;45338;-68
2022/04/01 01:35:49;;;;;;;;;4.50;1.75;;;;;3.64;64.92;100213.88;5066517;28;45334;-68
2022/04/01 01:38:18;;;;;;;;;5.25;1.00;;;;;3.66;65.00;100227.19;5076194;28;48365;-68
2022/04/01 01:40:43;;;;;;;;;4.00;2.00;;;;;3.70;65.71;100221.47;5068764;27;45243;-68
2022/04/01 01:43:09;;;;;;;;;2.00;0.00;;;;;3.61;67.06;100206.06;5075327;28;45521;-68
2022/04/01 01:45:35;;;;;;;;;0.00;0.00;;;;;3.58;68.04;100219.69;5068896;28;45179;-68
2022/04/01 01:48:00;;;;;;;;;3.75;1.25;;;;;3.39;69.47;100214.03;5072129;28;46518;-68
2022/04/01 01:55:54;;;;;;;;;1.50;0.75;;;;;3.32;70.61;100189.47;5066029;28;45366;-68
2022/04/01 01:58:19;;;;;;;;;1.00;1.00;;;;;3.43;69.59;100186.81;5078578;28;46149;-68
2022/04/01 02:00:45;;;;;;;;;0.00;0.00;;;;;3.50;69.69;100190.78;5066176;28;45249;-68
2022/04/01 02:03:11;;;;;;;;;5.50;1.00;;;;;3.47;69.99;100182.09;5082245;28;45445;-69
2022/04/01 02:05:37;;;;;;;;;1.25;1.25;;;;;3.42;68.86;100173.53;5070048;28;45348;-68
2022/04/01 02:08:05;;;;;;;;;4.00;0.00;;;;;3.50;69.29;100176.50;5079801;28;45975;-68
2022/04/01 02:10:33;;;;;;;;;1.00;1.00;;;;;3.35;68.70;100167.78;5081557;28;45350;-68
2022/04/01 02:12:59;;;;;;;;;1.00;1.00;;;;;3.47;69.47;100177.56;5077147;28;45424;-68
2022/04/01 02:15:25;;;;;;;;;2.00;1.00;;;;;3.56;69.36;100176.00;5075531;28;45326;-68
2022/04/01 02:17:51;;;;;;;;;2.50;2.50;;;;;3.57;69.82;100172.34;5077899;28;46437;-68
2022/04/01 02:20:17;;;;;;;;;4.00;4.00;;;;;3.52;70.69;100166.47;5065434;28;45493;-68
2022/04/01 02:22:43;;;;;;;;;4.00;2.00;;;;;3.42;71.45;100171.69;5077089;28;45289;-68
2022/04/01 02:25:11;;;;;;;;;1.67;1.67;;;;;3.46;72.29;100165.09;5074170;28;45503;-68
2022/04/01 02:27:37;;;;;;;;;4.50;4.00;;;;;3.47;72.42;100155.22;5080493;27;47294;-68
2022/04/01 02:30:11;;;;;;;;;7.00;3.00;;;;;3.56;72.82;100157.22;5086727;27;45428;-68
2022/04/01 02:32:40;;;;;;;;;4.00;2.00;;;;;3.54;73.23;100153.78;5083154;27;45437;-68
2022/04/01 02:35:07;;;;;;;;;1.00;1.00;;;;;3.56;73.56;100156.34;5067898;28;45603;-68
2022/04/01 02:37:34;;;;;;;;;5.25;3.50;;;;;3.46;74.37;100153.50;5072916;28;46562;-68
2022/04/01 02:39:59;;;;;;;;;2.50;2.50;;;;;3.56;74.98;100159.03;5069899;28;45533;-68
2022/04/01 02:42:24;;;;;;;;;5.25;2.00;;;;;3.50;74.34;100152.31;5075608;28;45453;-69
2022/04/01 02:44:50;;;;;;;;;1.50;1.25;;;;;3.53;75.54;100154.75;5074121;28;45355;-68
2022/04/01 02:47:16;;;;;;;;;4.25;1.00;;;;;3.43;74.73;100156.44;5070788;28;45489;-68
2022/04/01 02:49:41;;;;;;;;;0.00;0.00;;;;;3.45;75.46;100143.75;5065589;28;45377;-68
2022/04/01 02:52:07;;;;;;;;;0.75;0.75;;;;;3.45;76.11;100143.75;5071728;28;45577;-69
2022/04/01 02:54:35;;;;;;;;;4.75;1.00;;;;;3.47;75.94;100144.47;5067382;28;45379;-68
2022/04/01 02:57:02;;;;;;;;;1.00;1.00;;;;;3.33;76.21;100152.75;5068446;28;45397;-68
2022/04/01 02:59:28;;;;;;;;;2.00;2.00;;;;;3.26;76.90;100147.00;5065949;28;45266;-68
2022/04/01 03:01:53;;;;;;;;;6.50;2.00;;;;;3.28;77.49;100128.09;5080850;28;45417;-68
2022/04/01 03:04:19;;;;;;;;;2.00;2.00;;;;;3.25;77.14;100126.47;5076228;28;45428;-69
2022/04/01 03:06:44;;;;;;;;;3.00;3.00;;;;;3.19;77.95;100134.16;5072284;27;45679;-69
2022/04/01 03:09:10;;;;;;;;;1.00;1.00;;;;;3.25;78.88;100128.31;5074449;27;45396;-68
2022/04/01 03:11:36;;;;;;;;;3.50;1.50;;;;;3.22;78.37;100131.22;5078199;28;45342;-69
2022/04/01 03:14:07;;;;;;;;;3.50;2.00;;;;;3.28;78.17;100117.34;5082400;27;45495;-68
2022/04/01 03:16:32;;;;;;;;;0.00;0.00;;;;;3.26;78.12;100108.53;5068844;28;45200;-68
2022/04/01 03:18:59;;;;;;;;;1.75;1.75;;;;;3.17;78.60;100117.28;5080885;28;45472;-68
2022/04/01 03:21:26;;;;;;;;;1.00;1.00;;;;;3.07;78.48;100098.34;5073802;28;45513;-69
2022/04/01 03:23:52;;;;;;;;;2.00;2.00;;;;;3.26;78.94;100121.97;5073815;28;45394;-68
2022/04/01 03:26:20;;;;;;;;;4.00;4.00;;;;;3.20;78.93;100109.88;5067117;28;46290;-69
2022/04/01 03:28:46;;;;;;;;;4.50;1.50;;;;;3.13;78.72;100114.88;5088011;27;45243;-69
2022/04/01 03:31:12;;;;;;;;;3.50;3.50;;;;;3.10;78.52;100112.41;5066737;28;45560;-69
2022/04/01 03:33:38;;;;;;;;;3.00;3.00;;;;;3.04;78.46;100107.50;5070073;28;45421;-69
2022/04/01 03:36:04;;;;;;;;;4.00;1.25;;;;;3.07;78.93;100106.38;5068182;27;45582;-69
2022/04/01 03:38:31;;;;;;;;;1.75;1.75;;;;;3.06;78.21;100108.25;5077104;28;45577;-69
2022/04/01 03:40:57;;;;;;;;;0.50;0.50;;;;;3.12;78.15;100112.28;5064227;28;45453;-69
2022/04/01 03:43:24;;;;;;;;;2.00;2.00;;;;;3.16;78.37;100110.22;5075075;27;45450;-69
2022/04/01 03:45:54;;;;;;;;;1.00;1.00;;;;;3.14;78.15;100107.66;5065823;28;46435;-69
2022/04/01 03:48:35;;;;;;;;;0.25;0.25;;;;;3.01;78.39;100098.81;5083637;28;45472;-69
2022/04/01 03:51:01;;;;;;;;;2.00;2.00;;;;;3.04;78.49;100099.44;5071224;28;45369;-69
2022/04/01 03:53:31;;;;;;;;;3.50;1.00;;;;;3.11;78.46;100095.31;5071320;28;45502;-69
2022/04/01 03:55:58;;;;;;;;;2.00;1.00;;;;;3.12;77.87;100096.19;5063993;28;48258;-69
2022/04/01 03:58:29;;;;;;;;;2.00;2.00;;;;;3.17;77.63;100093.13;5075609;28;45414;-69
2022/04/01 04:00:57;;;;;;;;;2.00;2.00;;;;;3.18;77.61;100110.97;5064160;28;45742;-69
2022/04/01 04:03:23;;;;;;;;;4.00;2.00;;;;;3.14;77.85;100104.97;5078982;28;45630;-69
2022/04/01 04:05:49;;;;;;;;;1.50;1.50;;;;;3.18;77.21;100095.72;5066835;28;46560;-69
2022/04/01 04:08:18;;;;;;;;;1.00;1.00;;;;;3.17;77.43;100109.25;5080585;28;45281;-69
2022/04/01 04:10:46;;;;;;;;;2.25;1.75;;;;;2.97;77.38;100106.25;5072832;28;45378;-70
2022/04/01 04:13:13;;;;;;;;;1.75;1.75;;;;;3.16;77.91;100094.09;5068150;28;45550;-70
2022/04/01 04:15:49;;;;;;;;;1.25;1.25;;;;;3.09;77.03;100091.91;5064075;28;45382;-70
2022/04/01 04:18:17;;;;;;;;;3.50;1.00;;;;;3.08;76.60;100092.88;5079549;28;45335;-69
2022/04/01 04:21:00;;;;;;;;;5.50;5.00;;;;;3.10;76.47;100092.75;5072722;28;45466;-70
2022/04/01 04:23:40;;;;;;;;;6.25;4.50;;;;;3.17;76.64;100099.38;5073490;28;45298;-69
2022/04/01 04:26:17;;;;;;;;;1.00;1.00;;;;;3.24;76.78;100094.38;5080039;28;46953;-69
2022/04/01 04:28:48;;;;;;;;;1.75;1.75;;;;;3.18;75.94;100094.84;5085878;27;45491;-69
2022/04/01 04:31:14;;;;;;;;;4.00;4.00;;;;;3.17;76.23;100099.38;5083102;28;45402;-69
2022/04/01 04:33:45;;;;;;;;;1.25;1.25;;;;;3.31;76.15;100106.34;5075035;28;45585;-69
2022/04/01 04:36:14;;;;;;;;;4.50;4.25;;;;;3.30;75.94;100112.69;5064781;28;45424;-69
2022/04/01 04:38:43;;;;;;;;;0.00;0.00;;;;;3.11;75.47;100106.06;5072066;27;45319;-69
2022/04/01 04:41:08;;;;;;;;;4.25;4.25;;;;;3.30;75.51;100105.50;5064552;28;45874;-69
2022/04/01 04:43:44;;;;;;;;;5.00;5.00;;;;;3.27;75.22;100112.94;5067877;28;45207;-69
2022/04/01 04:46:10;;;;;;;;;1.25;1.25;;;;;3.18;75.06;100119.88;5079793;28;47406;-69
2022/04/01 04:48:39;;;;;;;;;1.25;1.25;;;;;3.23;75.63;100120.38;5074263;28;45318;-69
2022/04/01 04:51:05;;;;;;;;;4.00;4.00;;;;;3.24;75.68;100121.22;5062421;28;45443;-69
2022/04/01 04:53:34;;;;;;;;;1.25;1.25;;;;;3.21;75.33;100116.09;5077463;27;45575;-70
2022/04/01 04:56:00;;;;;;;;;3.00;3.00;;;;;3.23;74.63;100124.88;5070026;28;47295;-69
2022/04/01 04:58:40;;;;;;;;;5.75;5.75;;;;;3.26;74.64;100127.34;5073151;28;45338;-69
2022/04/01 05:01:26;;;;;;;;;4.00;4.00;;;;;3.23;74.22;100130.25;5063863;28;45322;-69
2022/04/01 05:04:12;;;;;;;;;5.00;5.00;;;;;3.27;73.95;100139.78;5082658;28;45383;-70
2022/04/01 05:06:52;;;;;;;;;4.00;4.00;;;;;3.27;73.77;100137.97;5065443;28;45536;-69
2022/04/01 05:09:38;;;;;;;;;1.25;1.25;;;;;3.28;73.90;100144.19;5076706;28;45311;-69
2022/04/01 05:12:26;;;;;;;;;4.50;4.50;;;;;3.28;73.88;100141.50;5050711;28;45478;-69
2022/04/01 05:15:01;;;;;;;;;5.00;5.00;;;;;3.40;74.20;100148.63;5055616;28;45794;-71
2022/04/01 05:17:36;;;;;;;;;5.00;5.00;;;;;3.29;73.14;100152.09;5074047;28;45439;-68
2022/04/01 05:20:11;;;;;;;;;5.50;2.00;;;;;3.23;72.89;100152.56;5073962;28;46203;-68
2022/04/01 05:22:47;;;;;;;;;2.00;2.00;;;;;3.25;72.34;100150.63;5074404;28;45255;-69
2022/04/01 05:25:20;;;;;;;;;1.00;0.00;;;;;3.27;71.85;100150.53;5069626;28;45593;-68
2022/04/01 05:27:49;;;;;;;;;5.50;5.50;;;;;3.28;71.88;100163.00;5078129;27;46885;-69
2022/04/01 05:30:16;;;;;;;;;6.00;4.00;;;;;3.27;72.30;100166.63;5079219;27;45804;-68
2022/04/01 05:33:00;;;;;;;;;5.25;4.75;;;;;3.24;72.53;100169.53;5071551;28;45313;-69
2022/04/01 05:35:32;;;;;;;;;3.00;3.00;;;;;3.01;73.02;100144.44;5077673;28;45613;-69
2022/04/01 05:37:59;;;;;;;;;5.00;5.00;;;;;3.08;73.22;100159.09;5072040;28;46374;-68
2022/04/01 05:40:26;;;;;;;;;9.00;5.50;;;;;3.11;73.39;100165.09;5065631;28;45335;-68
2022/04/01 05:42:54;;;;;;;;;7.00;5.00;;;;;3.17;73.98;100169.16;5075314;28;45524;-67
2022/04/01 05:45:20;;;;;;;;;5.50;1.75;;;;;3.17;73.72;100179.03;5067253;27;45454;-68
2022/04/01 05:47:47;;;;;;;;;8.50;6.00;;;;;3.12;73.81;100166.81;5075054;28;45317;-67
2022/04/01 05:50:20;;;;;;;;;5.25;5.25;;;;;3.18;73.51;100175.38;5067215;28;45490;-68
2022/04/01 05:52:47;;;;;;;;;3.50;3.50;;;;;3.27;74.04;100180.06;5065908;28;45418;-69
2022/04/01 05:55:16;;;;;;;;;4.00;4.00;;;;;3.23;73.52;100173.19;5064515;28;45606;-69
2022/04/01 05:57:42;;;;;;;;;8.50;4.50;;;;;3.02;74.64;100197.13;5063960;28;47402;-69
2022/04/01 06:00:12;;;;;;;;;7.75;7.75;;;;;2.98;75.42;100185.78;5060690;28;45229;-69
2022/04/01 06:03:14;;;;;;;;;6.00;6.00;;;;;3.02;76.12;100206.03;5075139;28;45403;-69
2022/04/01 06:05:50;;;;;;;;;6.50;6.50;;;;;2.97;76.49;100199.31;5073273;28;45401;-70
2022/04/01 06:08:48;;;;;;;;;7.00;5.25;;;;;2.88;76.82;100195.47;5075417;28;47272;-69
2022/04/01 06:11:28;;;;;;;;;8.25;6.00;;;;;2.81;77.91;100207.63;5067025;28;45434;-68
2022/04/01 06:13:59;;;;;;;;;13.75;13.75;;;;;2.82;78.91;100212.03;5074642;28;45292;-68
2022/04/01 06:16:52;;;;;;;;;6.00;6.00;;;;;2.78;78.93;100210.53;5067686;28;45345;-69
2022/04/01 06:19:26;;;;;;;;;6.25;6.25;;;;;2.76;82.96;100217.00;5068952;28;45381;-69
2022/04/01 06:22:03;;;;;;;;;9.25;5.00;;;;;2.69;80.58;100203.16;5069828;28;45828;-68
2022/04/01 06:24:34;;;;;;;;;13.00;11.25;;;;;2.76;79.78;100225.91;5066939;28;45247;-68
2022/04/01 06:27:01;;;;;;;;;12.25;9.75;;;;;2.61;80.47;100229.69;5073387;28;45416;-67
2022/04/01 06:29:39;;;;;;;;;13.50;11.25;;;;;2.70;81.20;100234.41;5083068;27;48218;-69
2022/04/01 06:32:05;;;;;;;;;7.00;7.00;;;;;2.47;80.90;100243.22;5072413;28;47541;-69
2022/04/01 06:34:55;;;;;;;;;6.50;5.75;;;;;2.50;81.12;100245.66;5068802;27;45286;-69
2022/04/01 06:37:27;;;;;;;;;8.75;8.75;;;;;2.42;81.50;100261.44;5072636;28;45460;-69
2022/04/01 06:40:12;;;;;;;;;10.25;10.25;;;;;2.29;82.02;100259.63;5064567;28;45397;-69
2022/04/01 06:42:39;;;;;;;;;6.75;6.75;;;;;2.28;81.83;100246.34;5080559;28;45326;-69
2022/04/01 06:45:10;;;;;;;;;6.00;5.75;;;;;2.07;81.79;100256.75;5071771;28;45454;-70
2022/04/01 06:47:40;;;;;;;;;11.25;8.75;;;;;2.14;82.71;100263.38;5077136;27;45559;-70
2022/04/01 06:50:06;;;;;;;;;10.50;10.50;;;;;2.24;82.97;100259.13;5067110;28;45510;-70
2022/04/01 06:52:32;;;;;;;;;9.00;9.00;;;;;2.20;82.79;100267.47;5068668;28;45458;-70
2022/04/01 06:54:57;;;;;;;;;11.75;11.75;;;;;2.28;83.10;100284.72;5074675;28;45285;-70
2022/04/01 06:57:24;;;;;;;;;11.75;11.75;;;;;2.26;82.97;100272.41;5078361;28;45885;-70
2022/04/01 06:59:50;;;;;;;;;5.00;4.25;;;;;2.24;83.15;100274.34;5070055;28;45926;-70
2022/04/01 07:02:15;;;;;;;;;10.25;10.25;;;;;2.11;82.92;100266.31;5073587;28;45428;-70
2022/04/01 07:04:41;;;;;;;;;11.50;8.75;;;;;2.05;82.80;100273.88;5072389;28;45397;-70
2022/04/01 07:07:07;;;;;;;;;12.00;9.00;;;;;2.05;83.48;100274.75;5070030;28;45532;-70
2022/04/01 07:09:33;;;;;;;;;20.50;15.75;;;;;2.11;83.58;100285.06;5079425;28;48039;-69
2022/04/01 07:12:01;;;;;;;;;11.25;8.00;;;;;2.12;83.39;100284.06;5072017;28;45496;-71
2022/04/01 07:14:33;;;;;;;;;14.75;12.00;;;;;2.14;83.42;100275.94;5064691;28;45313;-69
2022/04/01 07:16:59;;;;;;;;;12.25;9.00;;;;;2.19;83.67;100282.69;5072630;28;45915;-70
2022/04/01 07:19:25;;;;;;;;;9.00;9.00;;;;;2.23;83.83;100286.88;5073095;28;47042;-70
2022/04/01 07:21:50;;;;;;;;;14.25;11.00;;;;;2.31;83.80;100287.19;5071020;28;45526;-70
2022/04/01 07:24:16;;;;;;;;;11.00;10.75;;;;;2.38;83.32;100293.00;5075634;28;45524;-70
2022/04/01 07:26:44;;;;;;;;;8.00;8.00;;;;;2.19;82.91;100293.41;5069247;28;45335;-69
2022/04/01 07:29:10;;;;;;;;;14.50;11.75;;;;;2.28;83.18;100303.50;5086244;27;46417;-71
2022/04/01 07:34:30;;;;;;;;;9.00;9.00;;;;;2.15;83.05;100302.63;5072657;28;45239;-70
2022/04/01 07:36:55;;;;;;;;;6.50;6.50;;;;;2.37;83.09;100309.19;5071445;28;45412;-69
2022/04/01 07:39:21;;;;;;;;;10.25;10.25;;;;;2.38;82.73;100297.50;5073544;28;47478;-69
2022/04/01 07:41:47;;;;;;;;;11.75;11.00;;;;;2.25;82.30;100309.09;5083396;28;45458;-69
2022/04/01 07:44:12;;;;;;;;;12.00;8.50;;;;;2.31;82.78;100307.78;5067710;27;45217;-69
2022/04/01 07:46:38;;;;;;;;;10.25;10.25;;;;;2.40;82.86;100307.16;5068927;28;45961;-69
2022/04/01 07:49:03;;;;;;;;;8.00;5.00;;;;;2.31;82.53;100289.88;5065949;27;45353;-70
2022/04/01 07:51:28;;;;;;;;;9.75;5.75;;;;;2.37;82.36;100307.34;5067143;28;45527;-71
2022/04/01 07:53:54;;;;;;;;;14.50;13.75;;;;;2.38;82.19;100316.25;5072701;28;45442;-71
2022/04/01 07:56:19;;;;;;;;;12.00;12.00;;;;;2.45;82.21;100315.72;5065113;28;45633;-71
2022/04/01 07:58:44;;;;;;;;;11.50;11.50;;;;;2.31;81.63;100323.88;5077768;28;46349;-70
2022/04/01 08:01:11;;;;;;;;;15.50;12.75;;;;;2.38;81.79;100324.31;5064915;28;45313;-70
2022/04/01 08:03:41;;;;;;;;;16.50;14.50;;;;;2.51;81.25;100333.19;5081665;28;45445;-70
2022/04/01 08:06:07;;;;;;;;;4.50;4.00;;;;;2.38;81.33;100330.53;5070518;28;45201;-70
2022/04/01 08:08:32;;;;;;;;;11.50;11.50;;;;;2.32;81.15;100347.91;5075936;28;47135;-70
2022/04/01 08:10:58;;;;;;;;;10.50;10.50;;;;;2.39;81.21;100352.81;5075091;28;45803;-70
2022/04/01 08:13:24;;;;;;;;;9.00;9.00;;;;;2.35;81.49;100358.38;5076829;27;45397;-70
2022/04/01 08:15:50;;;;;;;;;8.25;8.25;;;;;2.37;81.64;100352.06;5064197;28;45480;-70
2022/04/01 08:18:15;;;;;;;;;15.25;15.00;;;;;2.57;81.79;100364.94;5074769;28;45512;-70
2022/04/01 08:20:40;;;;;;;;;12.00;11.50;;;;;2.35;80.74;100363.75;5062931;28;45513;-70
2022/04/01 08:23:06;;;;;;;;;13.25;11.25;;;;;2.50;80.98;100363.66;5074373;28;45428;-70
2022/04/01 08:25:31;;;;;;;;;8.00;5.25;;;;;2.45;80.67;100373.84;5071224;27;45364;-70
2022/04/01 08:27:56;;;;;;;;;5.25;4.75;;;;;2.48;80.79;100373.66;5082204;27;46491;-71
2022/04/01 08:30:22;;;;;;;;;14.00;12.75;;;;;2.55;80.68;100380.31;5072021;27;45399;-70
2022/04/01 08:32:47;;;;;;;;;11.75;11.25;;;;;2.58;80.53;100370.19;5068609;28;45951;-70
2022/04/01 08:35:13;;;;;;;;;17.75;13.25;;;;;2.44;79.88;100377.50;5072217;28;45381;-70
2022/04/01 08:37:39;;;;;;;;;12.25;12.25;;;;;2.53;79.87;100390.28;5074068;28;47951;-70
2022/04/01 08:40:05;;;;;;;;;21.75;19.25;;;;;2.60;79.98;100392.41;5068424;28;45410;-70
2022/04/01 08:42:32;;;;;;;;;15.50;11.50;;;;;2.76;79.94;100392.22;5068981;28;45337;-70
2022/04/01 08:44:58;;;;;;;;;17.25;14.25;;;;;2.87;79.62;100396.81;5066296;28;45188;-70
2022/04/01 08:47:24;;;;;;;;;19.75;13.75;;;;;2.97;79.63;100401.44;5077222;28;47224;-70
2022/04/01 08:49:49;;;;;;;;;15.25;14.00;;;;;2.88;78.71;100396.69;5070415;28;45450;-70
2022/04/01 08:52:15;;;;;;;;;10.75;10.75;;;;;2.81;78.52;100407.97;5080636;28;45538;-70
2022/04/01 08:54:41;;;;;;;;;11.75;8.75;;;;;2.66;78.15;100410.75;5079313;28;45439;-70
2022/04/01 08:57:08;;;;;;;;;12.50;12.00;;;;;2.90;78.72;100410.88;5070331;28;45608;-70
2022/04/01 08:59:35;;;;;;;;;16.50;15.75;;;;;2.96;78.22;100423.00;5071190;28;45346;-70
2022/04/01 09:02:09;;;;;;;;;17.25;16.00;;;;;3.02;78.22;100425.25;5069511;28;45171;-70
2022/04/01 09:04:36;;;;;;;;;17.00;15.00;;;;;2.90;77.67;100431.47;5068466;28;45290;-70
2022/04/01 09:07:15;;;;;;;;;15.50;15.00;;;;;2.96;77.52;100437.28;5069548;27;47416;-69
2022/04/01 09:09:41;;;;;;;;;16.00;14.00;;;;;3.00;76.50;100446.81;5064754;28;45360;-71
2022/04/01 09:12:15;;;;;;;;;18.00;15.00;;;;;2.94;76.18;100431.16;5067866;28;45403;-70
2022/04/01 09:14:48;;;;;;;;;13.25;13.25;;;;;3.14;77.06;100445.88;5077460;27;45496;-70
2022/04/01 09:17:15;;;;;;;;;12.00;12.00;;;;;2.88;76.50;100445.00;5072342;28;45440;-70
2022/04/01 09:19:41;;;;;;;;;20.50;17.25;;;;;2.89;76.69;100454.78;5065619;28;45418;-70
2022/04/01 09:22:23;;;;;;;;;13.00;13.00;;;;;3.12;77.11;100458.53;5071246;28;45378;-70
2022/04/01 09:24:52;;;;;;;;;12.50;9.75;;;;;2.94;76.10;100447.25;5071504;28;45540;-71
2022/04/01 09:27:18;;;;;;;;;17.75;17.75;;;;;3.14;76.50;100462.81;5074453;28;46159;-70
2022/04/01 09:29:43;;;;;;;;;17.75;16.50;;;;;3.22;76.77;100461.41;5069005;27;45306;-70
2022/04/01 09:32:09;;;;;;;;;11.25;9.25;;;;;3.26;75.29;100457.53;5074198;28;45313;-70
2022/04/01 09:34:37;;;;;;;;;18.25;15.25;;;;;3.25;76.19;100445.09;5070021;28;45301;-70
2022/04/01 09:37:02;;;;;;;;;21.50;19.50;;;;;3.28;75.86;100477.09;5068959;28;45345;-69
2022/04/01 09:39:28;;;;;;;;;20.75;16.50;;;;;3.30;75.57;100476.00;5067330;28;45310;-69
2022/04/01 09:41:55;;;;;;;;;13.50;13.25;;;;;3.41;75.62;100477.94;5070976;28;45551;-68
2022/04/01 09:44:26;;;;;;;;;13.00;13.00;;;;;3.36;75.42;100480.94;5074407;28;45371;-68
2022/04/01 09:47:06;;;;;;;;;16.75;13.25;;;;;3.38;74.89;100486.19;5073039;28;48398;-69
2022/04/01 09:49:36;;;;;;;;;12.50;12.00;;;;;3.36;75.32;100480.94;5073558;28;45467;-69
2022/04/01 09:52:13;;;;;;;;;18.25;15.75;;;;;3.29;76.00;100484.19;5069016;28;45259;-69
2022/04/01 09:54:46;;;;;;;;;13.25;10.50;;;;;3.36;75.94;100480.09;5075857;28;45355;-69
2022/04/01 09:57:12;;;;;;;;;20.75;16.00;;;;;3.47;76.78;100483.72;5079887;28;47066;-69
2022/04/01 09:59:37;;;;;;;;;14.25;13.00;;;;;3.49;76.24;100497.06;5084315;27;45616;-68
2022/04/01 10:02:03;;;;;;;;;16.75;14.00;;;;;3.47;76.89;100498.97;5072318;27;45353;-68
2022/04/01 10:04:29;;;;;;;;;21.50;20.00;;;;;3.45;75.58;100506.28;5076782;28;45559;-68
2022/04/01 10:06:55;;;;;;;;;21.50;17.00;;;;;3.34;75.45;100508.88;5069941;28;45408;-69
2022/04/01 10:09:22;;;;;;;;;17.00;17.00;;;;;3.52;75.95;100515.63;5074957;28;45298;-68
2022/04/01 10:11:48;;;;;;;;;21.75;21.50;;;;;3.49;76.04;100516.72;5070905;28;45349;-70
2022/04/01 10:14:23;;;;;;;;;19.75;19.75;;;;;3.49;75.61;100510.47;5074594;28;45429;-68
2022/04/01 10:16:49;;;;;;;;;20.75;18.75;;;;;3.64;75.64;100514.75;5074452;28;45567;-68
2022/04/01 10:19:30;;;;;;;;;20.00;15.50;;;;;3.61;74.44;100509.59;5075912;28;45244;-69
2022/04/01 10:21:56;;;;;;;;;31.25;21.25;;;;;3.63;75.12;100513.03;5074195;28;45376;-69
2022/04/01 10:24:55;;;;;;;;;18.25;16.50;;;;;3.69;75.13;100517.97;5075522;28;45351;-69
2022/04/01 10:27:38;;;;;;;;;21.75;21.75;;;;;3.75;74.68;100514.84;5077184;28;45346;-68
2022/04/01 10:30:05;;;;;;;;;17.00;17.00;;;;;3.62;74.82;100518.50;5074506;28;45313;-67
2022/04/01 10:32:30;;;;;;;;;21.75;20.75;;;;;3.77;75.22;100530.84;5077086;28;45401;-68
2022/04/01 10:35:00;;;;;;;;;21.50;15.50;;;;;3.61;74.35;100533.78;5067065;28;45348;-69
2022/04/01 10:37:30;;;;;;;;;21.00;17.50;;;;;3.63;73.71;100531.84;5072489;28;45817;-69
2022/04/01 10:40:06;;;;;;;;;17.00;16.25;;;;;3.52;74.17;100537.97;5073017;28;45181;-69
2022/04/01 10:42:33;;;;;;;;;18.75;17.75;;;;;3.63;73.88;100542.59;5077714;27;45326;-70
2022/04/01 10:45:20;;;;;;;;;20.25;20.00;;;;;3.70;73.22;100538.50;5068481;28;45360;-69
2022/04/01 10:53:38;;;;;;;;;15.75;13.25;;;;;3.70;74.35;100548.38;5069062;28;45444;-69
2022/04/01 10:56:25;;;;;;;;;12.25;9.75;;;;;3.77;74.34;100553.22;5064744;28;45536;-70
2022/04/01 10:59:18;;;;;;;;;17.50;15.75;;;;;3.80;73.93;100561.03;5077345;28;45469;-70
2022/04/01 11:01:53;;;;;;;;;25.75;23.50;;;;;3.89;73.50;100559.50;5068076;28;45254;-69
2022/04/01 11:04:18;;;;;;;;;21.00;17.00;;;;;3.66;73.00;100561.16;5081667;28;45551;-69
2022/04/01 11:06:51;;;;;;;;;19.00;17.25;;;;;3.66;73.38;100561.16;5080546;28;45552;-70
2022/04/01 11:09:39;;;;;;;;;21.75;17.00;;;;;3.90;73.44;100562.09;5085187;28;48069;-69
2022/04/01 11:12:23;;;;;;;;;24.00;20.00;;;;;3.98;72.63;100555.31;5072772;28;45152;-69
2022/04/01 11:17:34;;;;;;;;;15.50;13.75;;;;;3.76;72.78;100564.91;5076334;28;45448;-70
2022/04/01 11:20:04;;;;;;;;;26.00;20.00;;;;;3.63;72.80;100561.41;5073031;28;45408;-70
2022/04/01 11:22:44;;;;;;;;;19.00;17.75;;;;;3.46;72.93;100572.47;5072624;28;45386;-69
2022/04/01 11:25:24;;;;;;;;;20.75;19.25;;;;;3.66;73.01;100589.84;5064372;28;45294;-69
2022/04/01 11:27:55;;;;;;;;;18.50;17.25;;;;;3.64;72.71;100584.59;5078896;27;45752;-69
2022/04/01 11:30:24;;;;;;;;;18.25;18.25;;;;;3.75;72.76;100571.25;5065274;27;46255;-68
2022/04/01 11:33:18;;;;;;;;;19.50;17.50;;;;;3.72;71.65;100584.94;5068566;28;45455;-68
2022/04/01 11:35:49;;;;;;;;;22.25;17.50;;;;;3.75;72.03;100583.84;5074138;27;45294;-67
2022/04/01 11:38:18;;;;;;;;;20.00;15.50;;;;;3.83;72.05;100582.31;5072966;28;45365;-69
2022/04/01 11:40:46;;;;;;;;;16.25;13.75;;;;;3.71;71.50;100593.94;5068966;28;46167;-69
2022/04/01 11:43:20;;;;;;;;;23.75;21.00;;;;;3.58;72.13;100578.81;5075684;28;45406;-68
2022/04/01 11:45:45;;;;;;;;;21.00;18.25;;;;;3.66;72.53;100595.22;5071560;28;45466;-69
2022/04/01 11:48:17;;;;;;;;;18.00;18.00;;;;;3.67;72.68;100596.94;5071281;27;45308;-69
2022/04/01 11:50:45;;;;;;;;;22.75;17.50;;;;;3.70;73.06;100602.97;5072522;28;47161;-69
2022/04/01 11:53:22;;;;;;;;;24.75;23.25;;;;;3.76;73.15;100607.91;5071990;27;45460;-68